Terminal Aerodrome Forecast
Issued by NWS

Home | Current Version | Previous Version | Text Only | Print | Product List | Glossary On
Versions: 1 2 3 4 5 6 7 8 9 10 11 12 13 14 15 16
369
FTUS42 TJSJ 282344
TAFJPS
TAF
TJPS 282344Z 2900/2924 07005KT P6SM BKN090
     FM291330 15010KT P6SM FEW025 BKN060
     FM292330 10007KT P6SM FEW030 SCT060
      AMD NOT SKED TIL 290300=

USA.gov is the U.S. government's official web portal to all federal, state and local government web resources and services.